Aviation Digital Data Service (ADDS)

Output produced by METARs form (0807 UTC 27 February 2020)
found at http://www.aviationweather.gov/metar/data/
 
Forecast for: ZBAD
Text: TAF ZBAD 270300Z 2706/2806 18004MPS 6000 NSC TX07/2707Z TNM00/2721Z
Forecast period: 0600 UTC 27 February 2020 to 0600 UTC 28 February 2020
Forecast type: FROM: standard forecast or significant change
Winds: from the S (180 degrees) at 9 MPH (8 knots; 4.1 m/s)
Visibility: 4 miles (6 km)
Ceiling: unknown
Clouds: missing
Weather: no significant weather forecast for this period